sensor_id;sensor_type;location;lat;lon;timestamp;pressure;altitude;pressure_sealevel;temperature;humidity
17311;BME280;8773;43.300;0.394;2023-09-18T00:01:01;99183.13;;;17.59;81.92
17311;BME280;8773;43.300;0.394;2023-09-18T00:03:29;99189.03;;;17.36;82.97
17311;BME280;8773;43.300;0.394;2023-09-18T00:05:56;99193.97;;;17.46;82.70
17311;BME280;8773;43.300;0.394;2023-09-18T00:08:24;99193.63;;;17.29;83.39
17311;BME280;8773;43.300;0.394;2023-09-18T00:10:53;99205.31;;;16.97;84.61
17311;BME280;8773;43.300;0.394;2023-09-18T00:13:21;99202.75;;;17.22;83.78
17311;BME280;8773;43.300;0.394;2023-09-18T00:15:54;99206.50;;;17.27;83.75
17311;BME280;8773;43.300;0.394;2023-09-18T00:18:21;99202.97;;;17.27;83.34
17311;BME280;8773;43.300;0.394;2023-09-18T00:20:49;99194.25;;;17.25;82.92
17311;BME280;8773;43.300;0.394;2023-09-18T00:23:17;99192.56;;;17.30;82.60
17311;BME280;8773;43.300;0.394;2023-09-18T00:25:44;99200.94;;;17.16;82.51
17311;BME280;8773;43.300;0.394;2023-09-18T00:28:11;99198.06;;;17.04;83.31
17311;BME280;8773;43.300;0.394;2023-09-18T00:30:42;99197.44;;;17.09;82.82
17311;BME280;8773;43.300;0.394;2023-09-18T00:33:15;99197.44;;;16.95;83.14
17311;BME280;8773;43.300;0.394;2023-09-18T00:35:45;99194.53;;;16.97;83.46
17311;BME280;8773;43.300;0.394;2023-09-18T00:38:12;99200.97;;;16.89;83.55
17311;BME280;8773;43.300;0.394;2023-09-18T00:40:40;99206.38;;;16.76;84.01
17311;BME280;8773;43.300;0.394;2023-09-18T00:43:08;99204.91;;;16.87;83.85
17311;BME280;8773;43.300;0.394;2023-09-18T00:45:39;99199.94;;;16.84;84.09
17311;BME280;8773;43.300;0.394;2023-09-18T00:48:07;99209.47;;;16.86;83.84
17311;BME280;8773;43.300;0.394;2023-09-18T00:50:36;99203.25;;;16.79;83.35
17311;BME280;8773;43.300;0.394;2023-09-18T00:53:04;99209.06;;;16.89;82.96
17311;BME280;8773;43.300;0.394;2023-09-18T00:55:36;99201.59;;;16.98;82.07
17311;BME280;8773;43.300;0.394;2023-09-18T00:58:05;99209.91;;;16.90;82.22
17311;BME280;8773;43.300;0.394;2023-09-18T01:00:33;99214.03;;;17.06;81.72
17311;BME280;8773;43.300;0.394;2023-09-18T01:03:01;99211.91;;;17.21;81.00
17311;BME280;8773;43.300;0.394;2023-09-18T01:05:31;99194.97;;;16.74;82.41
17311;BME280;8773;43.300;0.394;2023-09-18T01:08:00;99206.59;;;16.55;83.70
17311;BME280;8773;43.300;0.394;2023-09-18T01:10:32;99199.09;;;16.44;83.72
17311;BME280;8773;43.300;0.394;2023-09-18T01:13:04;99211.06;;;16.01;85.79
17311;BME280;8773;43.300;0.394;2023-09-18T01:15:37;99213.19;;;16.32;85.02
17311;BME280;8773;43.300;0.394;2023-09-18T01:18:09;99222.09;;;16.33;84.86
17311;BME280;8773;43.300;0.394;2023-09-18T01:20:36;99230.19;;;16.46;84.15
17311;BME280;8773;43.300;0.394;2023-09-18T01:23:05;99224.84;;;16.79;82.99
17311;BME280;8773;43.300;0.394;2023-09-18T01:25:33;99215.31;;;16.70;83.13
17311;BME280;8773;43.300;0.394;2023-09-18T01:28:00;99211.16;;;16.61;83.13
17311;BME280;8773;43.300;0.394;2023-09-18T01:30:27;99219.84;;;16.89;82.58
17311;BME280;8773;43.300;0.394;2023-09-18T01:32:56;99204.06;;;17.06;81.33
17311;BME280;8773;43.300;0.394;2023-09-18T01:35:25;99208.88;;;16.84;82.53
17311;BME280;8773;43.300;0.394;2023-09-18T01:37:53;99216.34;;;16.69;82.43
17311;BME280;8773;43.300;0.394;2023-09-18T01:40:23;99197.19;;;15.98;86.39
17311;BME280;8773;43.300;0.394;2023-09-18T01:42:51;99208.44;;;16.34;84.89
17311;BME280;8773;43.300;0.394;2023-09-18T01:45:19;99204.31;;;16.58;83.75
17311;BME280;8773;43.300;0.394;2023-09-18T01:47:46;99206.16;;;16.84;82.56
17311;BME280;8773;43.300;0.394;2023-09-18T01:50:14;99213.63;;;16.95;81.74
17311;BME280;8773;43.300;0.394;2023-09-18T01:52:41;99214.25;;;16.97;81.82
17311;BME280;8773;43.300;0.394;2023-09-18T01:55:09;99229.41;;;16.79;82.78
17311;BME280;8773;43.300;0.394;2023-09-18T01:57:38;99227.31;;;17.00;81.60
17311;BME280;8773;43.300;0.394;2023-09-18T02:00:07;99236.25;;;16.94;81.62
17311;BME280;8773;43.300;0.394;2023-09-18T02:02:35;99222.94;;;17.06;81.15
17311;BME280;8773;43.300;0.394;2023-09-18T02:05:23;99218.59;;;17.12;80.21
17311;BME280;8773;43.300;0.394;2023-09-18T02:07:51;99211.97;;;16.61;82.37
17311;BME280;8773;43.300;0.394;2023-09-18T02:10:19;99201.41;;;16.27;84.21
17311;BME280;8773;43.300;0.394;2023-09-18T02:12:48;99203.25;;;16.46;83.55
17311;BME280;8773;43.300;0.394;2023-09-18T02:15:15;99192.06;;;16.56;82.77
17311;BME280;8773;43.300;0.394;2023-09-18T02:17:42;99189.16;;;16.64;82.48
17311;BME280;8773;43.300;0.394;2023-09-18T02:20:11;99190.00;;;16.78;81.99
17311;BME280;8773;43.300;0.394;2023-09-18T02:22:39;99178.41;;;16.70;82.20
17311;BME280;8773;43.300;0.394;2023-09-18T02:25:08;99188.75;;;16.87;81.24
17311;BME280;8773;43.300;0.394;2023-09-18T02:27:35;99186.03;;;16.93;80.96
17311;BME280;8773;43.300;0.394;2023-09-18T02:30:05;99188.72;;;16.93;80.93
17311;BME280;8773;43.300;0.394;2023-09-18T02:32:33;99201.19;;;16.68;82.30
17311;BME280;8773;43.300;0.394;2023-09-18T02:35:00;99196.22;;;16.91;81.00
17311;BME280;8773;43.300;0.394;2023-09-18T02:37:28;99202.41;;;16.98;80.68
17311;BME280;8773;43.300;0.394;2023-09-18T02:39:55;99204.09;;;16.93;80.61
17311;BME280;8773;43.300;0.394;2023-09-18T02:42:23;99209.06;;;16.96;80.64
17311;BME280;8773;43.300;0.394;2023-09-18T02:44:50;99210.31;;;17.00;80.11
17311;BME280;8773;43.300;0.394;2023-09-18T02:47:19;99204.31;;;16.78;81.04
17311;BME280;8773;43.300;0.394;2023-09-18T02:49:46;99205.34;;;16.51;81.99
17311;BME280;8773;43.300;0.394;2023-09-18T02:52:14;99205.13;;;16.59;81.60
17311;BME280;8773;43.300;0.394;2023-09-18T02:54:41;99213.00;;;16.54;81.94
17311;BME280;8773;43.300;0.394;2023-09-18T02:57:09;99220.03;;;16.15;82.86
17311;BME280;8773;43.300;0.394;2023-09-18T02:59:36;99218.19;;;16.29;82.92
17311;BME280;8773;43.300;0.394;2023-09-18T03:02:04;99214.81;;;16.07;83.96
17311;BME280;8773;43.300;0.394;2023-09-18T03:04:33;99214.19;;;15.98;84.70
17311;BME280;8773;43.300;0.394;2023-09-18T03:07:00;99212.78;;;16.35;82.98
17311;BME280;8773;43.300;0.394;2023-09-18T03:09:28;99216.53;;;16.48;82.22
17311;BME280;8773;43.300;0.394;2023-09-18T03:11:56;99211.34;;;16.59;81.35
17311;BME280;8773;43.300;0.394;2023-09-18T03:14:23;99223.56;;;16.22;82.48
17311;BME280;8773;43.300;0.394;2023-09-18T03:16:51;99231.84;;;16.34;82.48
17311;BME280;8773;43.300;0.394;2023-09-18T03:19:18;99223.13;;;16.32;82.27
17311;BME280;8773;43.300;0.394;2023-09-18T03:21:47;99217.97;;;16.50;81.54
17311;BME280;8773;43.300;0.394;2023-09-18T03:24:14;99221.09;;;16.67;81.10
17311;BME280;8773;43.300;0.394;2023-09-18T03:26:42;99217.78;;;16.52;81.35
17311;BME280;8773;43.300;0.394;2023-09-18T03:29:09;99222.69;;;16.09;82.62
17311;BME280;8773;43.300;0.394;2023-09-18T03:31:37;99220.81;;;16.02;83.26
17311;BME280;8773;43.300;0.394;2023-09-18T03:34:04;99211.53;;;16.31;81.77
17311;BME280;8773;43.300;0.394;2023-09-18T03:36:31;99217.91;;;15.97;83.05
17311;BME280;8773;43.300;0.394;2023-09-18T03:39:00;99218.38;;;16.14;82.81
17311;BME280;8773;43.300;0.394;2023-09-18T03:41:28;99227.09;;;16.43;81.03
17311;BME280;8773;43.300;0.394;2023-09-18T03:43:55;99241.81;;;16.53;81.03
17311;BME280;8773;43.300;0.394;2023-09-18T03:46:22;99238.78;;;15.89;83.33
17311;BME280;8773;43.300;0.394;2023-09-18T03:48:50;99233.50;;;16.15;82.67
17311;BME280;8773;43.300;0.394;2023-09-18T03:51:18;99231.16;;;15.86;83.87
17311;BME280;8773;43.300;0.394;2023-09-18T03:53:45;99225.66;;;16.27;81.68
17311;BME280;8773;43.300;0.394;2023-09-18T03:56:14;99213.13;;;15.93;82.39
17311;BME280;8773;43.300;0.394;2023-09-18T03:58:41;99229.69;;;15.96;82.39
17311;BME280;8773;43.300;0.394;2023-09-18T04:01:09;99230.13;;;16.00;82.43
17311;BME280;8773;43.300;0.394;2023-09-18T04:03:36;99228.03;;;15.89;82.40
17311;BME280;8773;43.300;0.394;2023-09-18T04:06:04;99229.94;;;16.08;81.53
17311;BME280;8773;43.300;0.394;2023-09-18T04:08:32;99224.53;;;15.95;82.19
17311;BME280;8773;43.300;0.394;2023-09-18T04:10:59;99224.53;;;15.47;83.79
17311;BME280;8773;43.300;0.394;2023-09-18T04:13:28;99216.97;;;15.70;82.67
17311;BME280;8773;43.300;0.394;2023-09-18T04:15:55;99224.28;;;15.90;82.30
17311;BME280;8773;43.300;0.394;2023-09-18T04:18:23;99226.66;;;16.13;81.10
17311;BME280;8773;43.300;0.394;2023-09-18T04:20:50;99228.72;;;16.17;80.86
17311;BME280;8773;43.300;0.394;2023-09-18T04:23:22;99228.31;;;16.20;80.80
17311;BME280;8773;43.300;0.394;2023-09-18T04:25:50;99227.91;;;16.30;80.30
17311;BME280;8773;43.300;0.394;2023-09-18T04:28:20;99229.69;;;15.90;81.68
17311;BME280;8773;43.300;0.394;2023-09-18T04:30:49;99222.28;;;16.12;81.40
17311;BME280;8773;43.300;0.394;2023-09-18T04:33:16;99218.78;;;16.11;81.04
17311;BME280;8773;43.300;0.394;2023-09-18T04:35:44;99221.03;;;16.01;80.74
17311;BME280;8773;43.300;0.394;2023-09-18T04:38:12;99230.09;;;15.46;83.34
17311;BME280;8773;43.300;0.394;2023-09-18T04:40:39;99230.00;;;15.26;84.88
17311;BME280;8773;43.300;0.394;2023-09-18T04:43:08;99228.44;;;15.38;84.55
17311;BME280;8773;43.300;0.394;2023-09-18T04:45:35;99237.81;;;15.55;83.70
17311;BME280;8773;43.300;0.394;2023-09-18T04:48:05;99230.25;;;15.31;84.46
17311;BME280;8773;43.300;0.394;2023-09-18T04:50:35;99231.84;;;15.19;85.17
17311;BME280;8773;43.300;0.394;2023-09-18T04:53:03;99236.16;;;15.54;84.59
17311;BME280;8773;43.300;0.394;2023-09-18T04:55:30;99236.84;;;15.69;83.39
17311;BME280;8773;43.300;0.394;2023-09-18T04:57:58;99235.94;;;15.15;85.50
17311;BME280;8773;43.300;0.394;2023-09-18T05:00:25;99249.16;;;15.51;84.27
17311;BME280;8773;43.300;0.394;2023-09-18T05:02:53;99258.94;;;15.58;83.33
17311;BME280;8773;43.300;0.394;2023-09-18T05:05:22;99250.16;;;15.43;84.16
17311;BME280;8773;43.300;0.394;2023-09-18T05:07:49;99256.59;;;15.42;83.58
17311;BME280;8773;43.300;0.394;2023-09-18T05:10:17;99255.91;;;15.75;83.25
17311;BME280;8773;43.300;0.394;2023-09-18T05:12:44;99252.50;;;16.00;82.21
17311;BME280;8773;43.300;0.394;2023-09-18T05:15:11;99255.16;;;15.94;81.75
17311;BME280;8773;43.300;0.394;2023-09-18T05:17:40;99247.91;;;15.94;81.67
17311;BME280;8773;43.300;0.394;2023-09-18T05:20:09;99245.28;;;15.60;82.73
17311;BME280;8773;43.300;0.394;2023-09-18T05:22:38;99240.84;;;15.87;81.96
17311;BME280;8773;43.300;0.394;2023-09-18T05:25:05;99241.72;;;15.94;81.11
17311;BME280;8773;43.300;0.394;2023-09-18T05:27:33;99247.16;;;15.59;82.68
17311;BME280;8773;43.300;0.394;2023-09-18T05:30:00;99252.06;;;15.84;81.72
17311;BME280;8773;43.300;0.394;2023-09-18T05:32:28;99250.16;;;15.43;82.60
17311;BME280;8773;43.300;0.394;2023-09-18T05:34:55;99254.22;;;15.26;83.57
17311;BME280;8773;43.300;0.394;2023-09-18T05:37:23;99264.88;;;15.41;83.57
17311;BME280;8773;43.300;0.394;2023-09-18T05:39:52;99253.44;;;15.32;83.69
17311;BME280;8773;43.300;0.394;2023-09-18T05:42:19;99250.53;;;15.33;83.50
17311;BME280;8773;43.300;0.394;2023-09-18T05:44:46;99255.31;;;15.03;83.96
17311;BME280;8773;43.300;0.394;2023-09-18T05:47:14;99255.41;;;15.17;84.15
17311;BME280;8773;43.300;0.394;2023-09-18T05:49:43;99263.75;;;15.00;83.76
17311;BME280;8773;43.300;0.394;2023-09-18T05:52:10;99262.72;;;15.29;83.33
17311;BME280;8773;43.300;0.394;2023-09-18T05:54:38;99264.00;;;15.05;83.07
17311;BME280;8773;43.300;0.394;2023-09-18T05:57:06;99270.22;;;15.06;84.39
17311;BME280;8773;43.300;0.394;2023-09-18T05:59:34;99266.88;;;15.04;83.73
17311;BME280;8773;43.300;0.394;2023-09-18T06:02:01;99272.06;;;15.05;84.12
17311;BME280;8773;43.300;0.394;2023-09-18T06:04:29;99274.91;;;15.25;83.83
17311;BME280;8773;43.300;0.394;2023-09-18T06:06:56;99275.00;;;15.38;83.58
17311;BME280;8773;43.300;0.394;2023-09-18T06:09:23;99281.66;;;15.49;83.28
17311;BME280;8773;43.300;0.394;2023-09-18T06:11:51;99289.50;;;15.79;82.54
17311;BME280;8773;43.300;0.394;2023-09-18T06:14:20;99286.06;;;16.04;81.18
17311;BME280;8773;43.300;0.394;2023-09-18T06:16:47;99291.66;;;16.03;81.06
17311;BME280;8773;43.300;0.394;2023-09-18T06:19:15;99286.16;;;16.24;80.16
17311;BME280;8773;43.300;0.394;2023-09-18T06:21:42;99294.22;;;16.37;79.90
17311;BME280;8773;43.300;0.394;2023-09-18T06:24:10;99292.34;;;16.18;79.83
17311;BME280;8773;43.300;0.394;2023-09-18T06:26:37;99299.84;;;16.29;79.02
17311;BME280;8773;43.300;0.394;2023-09-18T06:29:05;99294.69;;;16.61;78.50
17311;BME280;8773;43.300;0.394;2023-09-18T06:31:34;99297.81;;;15.84;80.95
17311;BME280;8773;43.300;0.394;2023-09-18T06:34:01;99286.13;;;16.18;80.27
17311;BME280;8773;43.300;0.394;2023-09-18T06:36:28;99296.59;;;16.80;79.72
17311;BME280;8773;43.300;0.394;2023-09-18T06:38:56;99299.69;;;17.17;77.94
17311;BME280;8773;43.300;0.394;2023-09-18T06:41:23;99296.97;;;17.36;77.01
17311;BME280;8773;43.300;0.394;2023-09-18T06:43:51;99296.72;;;17.64;76.52
17311;BME280;8773;43.300;0.394;2023-09-18T06:46:18;99297.72;;;17.77;75.58
17311;BME280;8773;43.300;0.394;2023-09-18T06:48:50;99296.53;;;18.11;74.55
17311;BME280;8773;43.300;0.394;2023-09-18T06:51:18;99295.47;;;18.18;73.59
17311;BME280;8773;43.300;0.394;2023-09-18T06:53:56;99286.34;;;18.51;72.97
17311;BME280;8773;43.300;0.394;2023-09-18T06:56:26;99286.53;;;19.06;71.19
17311;BME280;8773;43.300;0.394;2023-09-18T06:58:53;99282.81;;;19.50;69.01
17311;BME280;8773;43.300;0.394;2023-09-18T07:01:21;99281.22;;;19.97;66.98
17311;BME280;8773;43.300;0.394;2023-09-18T07:03:50;99274.75;;;20.70;65.06
17311;BME280;8773;43.300;0.394;2023-09-18T07:06:17;99276.88;;;20.26;65.01
17311;BME280;8773;43.300;0.394;2023-09-18T07:08:45;99284.56;;;20.59;64.87
17311;BME280;8773;43.300;0.394;2023-09-18T07:11:12;99285.78;;;20.45;66.21
17311;BME280;8773;43.300;0.394;2023-09-18T07:13:40;99284.13;;;20.85;65.71
17311;BME280;8773;43.300;0.394;2023-09-18T07:16:07;99293.84;;;20.63;63.19
17311;BME280;8773;43.300;0.394;2023-09-18T07:18:34;99284.53;;;21.24;62.33
17311;BME280;8773;43.300;0.394;2023-09-18T07:21:03;99295.97;;;21.73;62.73
17311;BME280;8773;43.300;0.394;2023-09-18T07:23:31;99307.28;;;21.11;61.73
17311;BME280;8773;43.300;0.394;2023-09-18T07:25:58;99317.13;;;22.51;60.05
17311;BME280;8773;43.300;0.394;2023-09-18T07:28:26;99327.56;;;22.87;59.41
17311;BME280;8773;43.300;0.394;2023-09-18T07:30:53;99329.13;;;22.83;56.41
17311;BME280;8773;43.300;0.394;2023-09-18T07:33:24;99327.66;;;22.76;57.70
17311;BME280;8773;43.300;0.394;2023-09-18T07:35:51;99333.00;;;22.71;58.79
17311;BME280;8773;43.300;0.394;2023-09-18T07:38:20;99327.31;;;22.04;58.97
17311;BME280;8773;43.300;0.394;2023-09-18T07:40:48;99321.38;;;21.67;60.04
17311;BME280;8773;43.300;0.394;2023-09-18T07:43:15;99328.31;;;21.51;60.61
17311;BME280;8773;43.300;0.394;2023-09-18T07:45:43;99333.06;;;21.44;62.46
17311;BME280;8773;43.300;0.394;2023-09-18T07:48:10;99334.38;;;21.64;61.17
17311;BME280;8773;43.300;0.394;2023-09-18T07:50:38;99332.72;;;21.75;61.06
17311;BME280;8773;43.300;0.394;2023-09-18T07:53:10;99341.44;;;21.89;60.60
17311;BME280;8773;43.300;0.394;2023-09-18T07:55:39;99349.22;;;21.04;62.13
17311;BME280;8773;43.300;0.394;2023-09-18T07:58:06;99351.13;;;21.38;62.92
17311;BME280;8773;43.300;0.394;2023-09-18T08:00:33;99359.31;;;20.66;64.25
17311;BME280;8773;43.300;0.394;2023-09-18T08:03:01;99365.69;;;20.90;63.85
17311;BME280;8773;43.300;0.394;2023-09-18T08:05:28;99361.59;;;21.11;63.38
17311;BME280;8773;43.300;0.394;2023-09-18T08:07:56;99359.22;;;20.91;63.26
17311;BME280;8773;43.300;0.394;2023-09-18T08:10:23;99363.47;;;20.99;63.90
17311;BME280;8773;43.300;0.394;2023-09-18T08:12:52;99357.81;;;21.12;63.36
17311;BME280;8773;43.300;0.394;2023-09-18T08:15:20;99361.28;;;21.31;64.01
17311;BME280;8773;43.300;0.394;2023-09-18T08:17:48;99362.44;;;21.58;62.46
17311;BME280;8773;43.300;0.394;2023-09-18T08:20:16;99361.06;;;21.91;62.48
17311;BME280;8773;43.300;0.394;2023-09-18T08:22:44;99367.88;;;21.58;61.99
17311;BME280;8773;43.300;0.394;2023-09-18T08:25:12;99364.97;;;21.48;63.65
17311;BME280;8773;43.300;0.394;2023-09-18T08:27:40;99369.47;;;21.78;62.74
17311;BME280;8773;43.300;0.394;2023-09-18T08:30:10;99368.34;;;22.02;62.51
17311;BME280;8773;43.300;0.394;2023-09-18T08:32:38;99369.66;;;21.99;62.59
17311;BME280;8773;43.300;0.394;2023-09-18T08:35:07;99363.38;;;22.11;62.81
17311;BME280;8773;43.300;0.394;2023-09-18T08:37:34;99366.44;;;22.14;62.22
17311;BME280;8773;43.300;0.394;2023-09-18T08:40:02;99365.63;;;22.02;62.21
17311;BME280;8773;43.300;0.394;2023-09-18T08:42:30;99363.28;;;21.94;63.57
17311;BME280;8773;43.300;0.394;2023-09-18T08:44:59;99366.97;;;21.88;62.96
17311;BME280;8773;43.300;0.394;2023-09-18T08:47:30;99377.41;;;22.19;63.22
17311;BME280;8773;43.300;0.394;2023-09-18T08:49:58;99372.59;;;21.98;63.22
17311;BME280;8773;43.300;0.394;2023-09-18T08:52:27;99378.97;;;22.15;62.67
17311;BME280;8773;43.300;0.394;2023-09-18T08:54:55;99378.63;;;22.12;62.27
17311;BME280;8773;43.300;0.394;2023-09-18T08:57:23;99384.34;;;21.75;63.40
17311;BME280;8773;43.300;0.394;2023-09-18T08:59:52;99381.81;;;21.97;63.68
17311;BME280;8773;43.300;0.394;2023-09-18T09:02:21;99387.19;;;22.44;63.11
17311;BME280;8773;43.300;0.394;2023-09-18T09:04:50;99392.88;;;22.30;63.52
17311;BME280;8773;43.300;0.394;2023-09-18T09:07:19;99391.72;;;22.26;63.48
17311;BME280;8773;43.300;0.394;2023-09-18T09:09:46;99391.19;;;22.53;63.23
17311;BME280;8773;43.300;0.394;2023-09-18T09:12:14;99395.28;;;22.15;64.53
17311;BME280;8773;43.300;0.394;2023-09-18T09:14:43;99374.91;;;22.29;65.20
17311;BME280;8773;43.300;0.394;2023-09-18T09:17:28;99388.88;;;22.33;64.83
17311;BME280;8773;43.300;0.394;2023-09-18T09:20:08;99401.50;;;22.79;64.24
17311;BME280;8773;43.300;0.394;2023-09-18T09:22:35;99414.41;;;23.01;63.37
17311;BME280;8773;43.300;0.394;2023-09-18T09:25:03;99420.06;;;23.11;63.06
17311;BME280;8773;43.300;0.394;2023-09-18T09:27:42;99424.81;;;23.04;61.71
17311;BME280;8773;43.300;0.394;2023-09-18T09:30:10;99434.97;;;22.40;61.40
17311;BME280;8773;43.300;0.394;2023-09-18T09:32:37;99436.50;;;22.47;61.29
17311;BME280;8773;43.300;0.394;2023-09-18T09:35:07;99444.19;;;22.39;60.55
17311;BME280;8773;43.300;0.394;2023-09-18T09:37:35;99450.66;;;22.89;59.98
17311;BME280;8773;43.300;0.394;2023-09-18T09:40:03;99444.66;;;23.33;59.39
17311;BME280;8773;43.300;0.394;2023-09-18T09:42:38;99440.88;;;23.67;57.75
17311;BME280;8773;43.300;0.394;2023-09-18T09:45:11;99441.66;;;23.79;57.72
17311;BME280;8773;43.300;0.394;2023-09-18T09:47:39;99459.50;;;23.87;58.06
17311;BME280;8773;43.300;0.394;2023-09-18T09:50:12;99456.19;;;24.23;58.62
17311;BME280;8773;43.300;0.394;2023-09-18T09:52:43;99465.19;;;24.41;56.92
17311;BME280;8773;43.300;0.394;2023-09-18T09:55:34;99461.38;;;24.42;56.69
17311;BME280;8773;43.300;0.394;2023-09-18T09:58:03;99459.72;;;24.02;55.72
17311;BME280;8773;43.300;0.394;2023-09-18T10:00:32;99465.69;;;23.99;55.45
17311;BME280;8773;43.300;0.394;2023-09-18T10:03:01;99470.66;;;24.24;54.70
17311;BME280;8773;43.300;0.394;2023-09-18T10:05:32;99464.13;;;24.25;54.83
17311;BME280;8773;43.300;0.394;2023-09-18T10:08:04;99466.41;;;24.50;55.01
17311;BME280;8773;43.300;0.394;2023-09-18T10:10:35;99466.25;;;24.83;54.36
17311;BME280;8773;43.300;0.394;2023-09-18T10:13:08;99462.34;;;25.01;53.75
17311;BME280;8773;43.300;0.394;2023-09-18T10:15:38;99453.16;;;25.07;51.65
17311;BME280;8773;43.300;0.394;2023-09-18T10:18:19;99458.72;;;24.69;50.05
17311;BME280;8773;43.300;0.394;2023-09-18T10:20:57;99466.78;;;24.58;49.67
17311;BME280;8773;43.300;0.394;2023-09-18T10:23:37;99464.69;;;24.05;50.03
17311;BME280;8773;43.300;0.394;2023-09-18T10:26:07;99472.81;;;24.60;48.51
17311;BME280;8773;43.300;0.394;2023-09-18T10:28:39;99469.56;;;25.34;48.05
17311;BME280;8773;43.300;0.394;2023-09-18T10:31:07;99460.44;;;25.55;45.58
17311;BME280;8773;43.300;0.394;2023-09-18T10:33:35;99459.88;;;25.53;45.05
17311;BME280;8773;43.300;0.394;2023-09-18T10:36:07;99466.91;;;24.90;44.18
17311;BME280;8773;43.300;0.394;2023-09-18T10:38:38;99466.31;;;24.88;45.19
17311;BME280;8773;43.300;0.394;2023-09-18T10:41:06;99469.50;;;24.80;46.67
17311;BME280;8773;43.300;0.394;2023-09-18T10:43:35;99478.53;;;24.81;45.30
17311;BME280;8773;43.300;0.394;2023-09-18T10:46:03;99492.19;;;24.81;46.44
17311;BME280;8773;43.300;0.394;2023-09-18T10:48:31;99488.75;;;24.90;44.95
17311;BME280;8773;43.300;0.394;2023-09-18T10:50:59;99489.28;;;25.14;45.84
17311;BME280;8773;43.300;0.394;2023-09-18T10:53:28;99487.16;;;25.48;45.42
17311;BME280;8773;43.300;0.394;2023-09-18T10:55:55;99485.34;;;25.59;44.81
17311;BME280;8773;43.300;0.394;2023-09-18T10:58:23;99484.47;;;25.53;44.93
17311;BME280;8773;43.300;0.394;2023-09-18T11:00:51;99486.09;;;25.22;44.99
17311;BME280;8773;43.300;0.394;2023-09-18T11:03:18;99490.06;;;25.10;45.94
17311;BME280;8773;43.300;0.394;2023-09-18T11:06:02;99505.13;;;24.90;44.71
17311;BME280;8773;43.300;0.394;2023-09-18T11:08:33;99489.91;;;25.00;45.29
17311;BME280;8773;43.300;0.394;2023-09-18T11:11:03;99504.56;;;24.67;42.85
17311;BME280;8773;43.300;0.394;2023-09-18T11:13:34;99503.22;;;24.31;44.41
17311;BME280;8773;43.300;0.394;2023-09-18T11:16:02;99512.34;;;24.58;43.58
17311;BME280;8773;43.300;0.394;2023-09-18T11:18:40;99510.19;;;24.60;43.22
17311;BME280;8773;43.300;0.394;2023-09-18T11:21:09;99506.53;;;24.71;42.97
17311;BME280;8773;43.300;0.394;2023-09-18T11:23:39;99510.28;;;25.09;42.40
17311;BME280;8773;43.300;0.394;2023-09-18T11:26:07;99506.22;;;25.38;42.23
17311;BME280;8773;43.300;0.394;2023-09-18T11:28:36;99511.16;;;25.41;41.57
17311;BME280;8773;43.300;0.394;2023-09-18T11:31:04;99515.34;;;25.76;40.77
17311;BME280;8773;43.300;0.394;2023-09-18T11:33:34;99524.09;;;25.78;40.33
17311;BME280;8773;43.300;0.394;2023-09-18T11:36:06;99526.63;;;25.57;39.64
17311;BME280;8773;43.300;0.394;2023-09-18T11:38:35;99530.50;;;25.93;39.88
17311;BME280;8773;43.300;0.394;2023-09-18T11:41:25;99518.03;;;25.71;40.20
17311;BME280;8773;43.300;0.394;2023-09-18T11:47:10;99538.97;;;25.33;40.80
17311;BME280;8773;43.300;0.394;2023-09-18T11:49:38;99547.47;;;25.64;39.66
17311;BME280;8773;43.300;0.394;2023-09-18T11:52:07;99537.59;;;25.63;38.83
17311;BME280;8773;43.300;0.394;2023-09-18T11:54:34;99532.59;;;25.54;37.81
17311;BME280;8773;43.300;0.394;2023-09-18T11:57:06;99530.53;;;25.40;36.86
17311;BME280;8773;43.300;0.394;2023-09-18T11:59:37;99543.44;;;25.44;38.11
17311;BME280;8773;43.300;0.394;2023-09-18T12:02:04;99547.78;;;25.67;38.59
17311;BME280;8773;43.300;0.394;2023-09-18T12:04:32;99539.75;;;25.87;38.29
17311;BME280;8773;43.300;0.394;2023-09-18T12:06:59;99556.06;;;25.50;37.44
17311;BME280;8773;43.300;0.394;2023-09-18T12:09:27;99554.47;;;25.54;37.06
17311;BME280;8773;43.300;0.394;2023-09-18T12:11:55;99557.25;;;25.59;36.76
17311;BME280;8773;43.300;0.394;2023-09-18T12:14:24;99553.97;;;26.16;37.24
17311;BME280;8773;43.300;0.394;2023-09-18T12:16:51;99553.75;;;25.91;36.39
17311;BME280;8773;43.300;0.394;2023-09-18T12:19:19;99547.56;;;26.06;36.90
17311;BME280;8773;43.300;0.394;2023-09-18T12:21:47;99549.72;;;26.36;37.24
17311;BME280;8773;43.300;0.394;2023-09-18T12:24:14;99562.66;;;26.45;36.74
17311;BME280;8773;43.300;0.394;2023-09-18T12:26:42;99568.53;;;26.64;37.23
17311;BME280;8773;43.300;0.394;2023-09-18T12:29:10;99564.59;;;26.50;37.15
17311;BME280;8773;43.300;0.394;2023-09-18T12:31:38;99569.88;;;26.24;38.58
17311;BME280;8773;43.300;0.394;2023-09-18T12:34:14;99564.16;;;25.94;38.76
17311;BME280;8773;43.300;0.394;2023-09-18T12:36:42;99569.84;;;26.19;39.66
17311;BME280;8773;43.300;0.394;2023-09-18T12:39:09;99560.59;;;26.31;37.85
17311;BME280;8773;43.300;0.394;2023-09-18T12:41:37;99578.81;;;26.10;38.21
17311;BME280;8773;43.300;0.394;2023-09-18T12:44:05;99580.41;;;25.74;37.78
17311;BME280;8773;43.300;0.394;2023-09-18T12:46:34;99577.22;;;25.87;37.78
17311;BME280;8773;43.300;0.394;2023-09-18T12:49:19;99576.50;;;25.97;36.70
17311;BME280;8773;43.300;0.394;2023-09-18T12:51:56;99576.03;;;26.42;36.67
17311;BME280;8773;43.300;0.394;2023-09-18T12:54:40;99578.47;;;26.80;37.23
17311;BME280;8773;43.300;0.394;2023-09-18T12:57:09;99571.25;;;26.27;36.18
17311;BME280;8773;43.300;0.394;2023-09-18T12:59:37;99580.94;;;25.71;38.05
17311;BME280;8773;43.300;0.394;2023-09-18T13:02:05;99607.63;;;25.15;40.75
17311;BME280;8773;43.300;0.394;2023-09-18T13:04:35;99606.25;;;24.57;42.64
17311;BME280;8773;43.300;0.394;2023-09-18T13:07:11;99615.28;;;24.24;42.92
17311;BME280;8773;43.300;0.394;2023-09-18T13:09:38;99625.41;;;23.67;44.45
17311;BME280;8773;43.300;0.394;2023-09-18T13:12:07;99629.72;;;23.62;44.79
17311;BME280;8773;43.300;0.394;2023-09-18T13:14:59;99621.09;;;23.54;45.28
17311;BME280;8773;43.300;0.394;2023-09-18T13:17:27;99634.97;;;23.81;45.71
17311;BME280;8773;43.300;0.394;2023-09-18T13:19:56;99634.16;;;23.69;46.66
17311;BME280;8773;43.300;0.394;2023-09-18T13:22:24;99637.59;;;24.04;46.22